Saturday, April 30, 2016
09:03 UTC
  |  Log In   |  Register Free
Airport Search:

Carmi Municipal Airport
(KCUL)

Carmi Municipal Airport Diagram
No Airport Diagram Available

FAA data valid effective Mar 31 2016 - May 26 2016 (unless otherwise noted).

 
 
 
 
 
 
 
 
 
 
 
 
 
 
Current Aviation Weather for KCUL

Weather Summary


The most recent METAR observation for CUL was updated at: 12:55 UTC
METAR for KCUL is not available. Closest METAR is for KFWC
KCUL  (most recent observation was updatred at 30:08 UTC)
300855Z AUTO 10003KT 10SM SCT060 BKN085 OVC090 16/14 A2991 RMK AO2 T01550140

KFWC  (22.1 nm SE)   (most recent observation was updated at 30:08 UTC)
300835Z AUTO 05004KT 10SM OVC048 15/13 A2990 RMK AO1 T01510134

KHSB  (26.2 nm NE)   (most recent observation was updated at 30:08 UTC)
300855Z AUTO 13005KT 10SM -DZ SCT060 BKN085 OVC090 16/14 A2990 RMK AO2 T01560138

TAF for KCUL is not available.
KEVV  (28.1 nm NW)   (most recent observation was updatred at 30:05 UTC)
300520Z 3006/0106 07006KT P6SM -SHRA SCT035 OVC070 FM301100 10010KT 5SM -SHRA BR BKN015 OVC040 TEMPO 3012/3016 2SM TSRA BR BKN009CB FM301800 17012G19KT P6SM SCT030 BKN150 FM010000 18006KT P6SM SCT050 BKN150 PROB30 0100/0106 4SM TSRA BKN035CB


GlobalAir.com is loading additional information.
 Current Weather at CUL
60.0 F° (15.5 C°)

East winds at 5.8 mph
Pressure:
29.90 in
Humidity:
90%
Wind:
East at 5.8 mph
Dew Point:
56.8 F° (13.8 C°)
Visibility:
10.00 mi
CUL NOAA Radar




Find All Airport Services Find A Hotel Find A Rental Car Find A Golf Course Find A Restaurant $100 Hamburger



Airport Weather Forecast for KCUL

Translated METAR for KCUL (0855 UTC)
METAR:
KCUL 300855Z AUTO 10003KT 10SM SCT060 BKN085 OVC090 16/14 A2991 RMK AO2 T01550140
Conditions at:
KCUL (Carmi Muni, IL) observed 0855 UTC 30 April 2016
Temperature:
16°C (60.8°F)
Dewpoint:
14°C (57.2°F) [RH = 87.9]
Pressure:
29.91 inches Hg (1012.9 mb)
Winds:
from the E (100 degrees) at 3.5 mph (3 knots: 1.5 m/s)
Visibility:
10 mile(s)
Ceiling:
8,500 feet AGL
Clouds:
Scattered Clouds at 6,000 feet AGL
Broken Cloud Cover at 8,500 feet AGL
Overcast Skies at 9,000 feet AGL
Remarks:
site is un-manned
site is automated and HAS a precipitation sensor

FBO's on the Field
FBO Company Facility Photos Services Transportation Aviation Fuel Prices: Prices include tax
Catering Weather Repair Courtesy Rental Type 100LL JetA JetA+ MOGAS 8087
 
Carmi Municipal Airport

This FBO has not yet been rated
FS:Shell
Last Updated: Apr-26
Login to update fuel prices
SS:
Contact Carmi Municipal AirportMore FBO Information
 
Add another FBO Facility Photos Catering Weather Repair Courtesy Rental Type 100LL JetA JetA+ MOGAS 8087
Services Transportation Aviation Fuel Prices: Prices include tax


model-print
model-print
model-print
model-print